Time;durP1;ratioP1;P1;durP2;ratioP2;P2;SDS_P1;SDS_P2;PMS_P1;PMS_P2;Temp;Humidity;BMP_temperature;BMP_pressure;BME280_temperature;BME280_humidity;BME280_pressure;Samples;Min_cycle;Max_cycle;Signal;HPM_P1;HPM_P2
2023/12/16 00:01:24;;;;;;;;;;;8.60;99.90;;;;;;4975118;28;19921;-68
2023/12/16 00:03:50;;;;;;;;;;;8.60;99.90;;;;;;4981686;28;20050;-68
2023/12/16 00:06:20;;;;;;;;;;;8.60;99.90;;;;;;4979786;28;19928;-68
2023/12/16 00:08:46;;;;;;;;;;;8.60;99.90;;;;;;4977601;28;20438;-68
2023/12/16 00:11:12;;;;;;;;;;;8.60;99.90;;;;;;4974980;28;20639;-68
2023/12/16 00:13:38;;;;;;;;;;;8.50;99.90;;;;;;4974989;28;19918;-68
2023/12/16 00:16:03;;;;;;;;;;;8.60;99.90;;;;;;4975998;28;20059;-68
2023/12/16 00:18:31;;;;;;;;;;;8.60;99.90;;;;;;4979099;28;19920;-68
2023/12/16 00:20:56;;;;;;;;;;;8.60;99.90;;;;;;4981642;28;20512;-68
2023/12/16 00:23:22;;;;;;;;;;;8.50;99.90;;;;;;4979017;28;19921;-68
2023/12/16 00:25:47;;;;;;;;;;;8.60;99.90;;;;;;4975804;28;20183;-68
2023/12/16 00:28:17;;;;;;;;;;;8.50;99.90;;;;;;4977698;28;19944;-68
2023/12/16 00:30:42;;;;;;;;;;;8.60;99.90;;;;;;4975603;28;20702;-68
2023/12/16 00:33:08;;;;;;;;;;;8.50;99.90;;;;;;4975495;28;19921;-68
2023/12/16 00:35:33;;;;;;;;;;;8.60;99.90;;;;;;4977887;28;19963;-68
2023/12/16 00:37:59;;;;;;;;;;;8.50;99.90;;;;;;4975088;28;19925;-68
2023/12/16 00:40:24;;;;;;;;;;;8.50;99.90;;;;;;4977527;28;20079;-68
2023/12/16 00:42:52;;;;;;;;;;;8.50;99.90;;;;;;4973089;28;20395;-68
2023/12/16 00:45:18;;;;;;;;;;;8.50;99.90;;;;;;4976274;28;20552;-68
2023/12/16 00:47:43;;;;;;;;;;;8.50;99.90;;;;;;5003465;23;19929;-66
2023/12/16 00:50:09;;;;;;;;;;;8.50;99.90;;;;;;4978729;28;19921;-66
2023/12/16 00:52:37;;;;;;;;;;;8.50;99.90;;;;;;4977651;28;19921;-66
2023/12/16 00:55:03;;;;;;;;;;;8.50;99.90;;;;;;4982490;28;20376;-66
2023/12/16 00:57:31;;;;;;;;;;;8.40;99.90;;;;;;4976741;28;20567;-66
2023/12/16 00:59:58;;;;;;;;;;;8.40;99.90;;;;;;4978206;28;19921;-66
2023/12/16 01:02:26;;;;;;;;;;;8.40;99.90;;;;;;4994192;28;19968;-66
2023/12/16 01:04:54;;;;;;;;;;;8.40;99.90;;;;;;4980566;28;19933;-66
2023/12/16 01:07:21;;;;;;;;;;;8.40;99.90;;;;;;4976098;28;19964;-66
2023/12/16 01:09:51;;;;;;;;;;;8.30;99.90;;;;;;4993671;28;20359;-66
2023/12/16 01:12:16;;;;;;;;;;;8.30;99.90;;;;;;4977183;28;19917;-66
2023/12/16 01:14:42;;;;;;;;;;;8.30;99.90;;;;;;4979477;28;19993;-66
2023/12/16 01:17:07;;;;;;;;;;;8.30;99.90;;;;;;4977671;28;19925;-66
2023/12/16 01:19:32;;;;;;;;;;;8.30;99.90;;;;;;4980160;28;19921;-66
2023/12/16 01:21:58;;;;;;;;;;;8.30;99.90;;;;;;4976578;28;19934;-66
2023/12/16 01:24:24;;;;;;;;;;;8.30;99.90;;;;;;4978741;28;19965;-66
2023/12/16 01:26:49;;;;;;;;;;;8.30;99.90;;;;;;4979037;28;19970;-65
2023/12/16 01:29:14;;;;;;;;;;;8.30;99.90;;;;;;4978997;28;19921;-66
2023/12/16 01:31:42;;;;;;;;;;;8.30;99.90;;;;;;4975955;28;19925;-66
2023/12/16 01:34:10;;;;;;;;;;;8.30;99.90;;;;;;4979519;28;19932;-66
2023/12/16 01:36:36;;;;;;;;;;;8.30;99.90;;;;;;4977776;28;19948;-66
2023/12/16 01:39:03;;;;;;;;;;;8.30;99.90;;;;;;4978050;28;19921;-66
2023/12/16 01:41:31;;;;;;;;;;;8.30;99.90;;;;;;4978230;28;19921;-66
2023/12/16 01:43:57;;;;;;;;;;;8.30;99.90;;;;;;4977839;28;20366;-66
2023/12/16 01:46:23;;;;;;;;;;;8.30;99.90;;;;;;4978457;28;19924;-66
2023/12/16 01:48:48;;;;;;;;;;;8.30;99.90;;;;;;4976350;28;19970;-66
2023/12/16 01:51:14;;;;;;;;;;;8.30;99.90;;;;;;4976114;28;19922;-66
2023/12/16 01:53:40;;;;;;;;;;;8.30;99.90;;;;;;4978007;28;20545;-66
2023/12/16 01:56:06;;;;;;;;;;;8.30;99.90;;;;;;4977684;28;19921;-66
2023/12/16 01:58:32;;;;;;;;;;;8.30;99.90;;;;;;4976933;28;19925;-66
2023/12/16 02:00:58;;;;;;;;;;;8.30;99.90;;;;;;4974896;28;19944;-66
2023/12/16 02:03:25;;;;;;;;;;;8.40;99.90;;;;;;4977239;28;20824;-66
2023/12/16 02:05:50;;;;;;;;;;;8.40;99.90;;;;;;4979795;28;20291;-66
2023/12/16 02:08:18;;;;;;;;;;;8.40;99.90;;;;;;4977738;28;19922;-66
2023/12/16 02:10:46;;;;;;;;;;;8.40;99.90;;;;;;4976047;28;19921;-66
2023/12/16 02:13:13;;;;;;;;;;;8.40;99.90;;;;;;4979215;28;19929;-66
2023/12/16 02:15:39;;;;;;;;;;;8.40;99.90;;;;;;4975286;28;19932;-68
2023/12/16 02:18:08;;;;;;;;;;;8.40;99.90;;;;;;4975569;28;20219;-68
2023/12/16 02:20:33;;;;;;;;;;;8.40;99.90;;;;;;4976922;28;20410;-68
2023/12/16 02:23:03;;;;;;;;;;;8.40;99.90;;;;;;4975758;28;20253;-68
2023/12/16 02:25:28;;;;;;;;;;;8.40;99.90;;;;;;4977973;28;19968;-68
2023/12/16 02:27:56;;;;;;;;;;;8.40;99.90;;;;;;4991252;28;19972;-68
2023/12/16 02:30:23;;;;;;;;;;;8.40;99.90;;;;;;4977964;28;19928;-68
2023/12/16 02:32:49;;;;;;;;;;;8.40;99.90;;;;;;4975067;28;19925;-68
2023/12/16 02:35:14;;;;;;;;;;;8.40;99.90;;;;;;4981516;28;20018;-68
2023/12/16 02:37:40;;;;;;;;;;;8.40;99.90;;;;;;4974425;28;19921;-68
2023/12/16 02:40:05;;;;;;;;;;;8.50;99.90;;;;;;4979784;28;19929;-68
2023/12/16 02:42:33;;;;;;;;;;;8.50;99.90;;;;;;4974951;28;20703;-68
2023/12/16 02:45:01;;;;;;;;;;;8.50;99.90;;;;;;4978469;28;20239;-68
2023/12/16 02:47:28;;;;;;;;;;;8.40;99.90;;;;;;4981384;28;19968;-68
2023/12/16 02:49:54;;;;;;;;;;;8.50;99.90;;;;;;4981039;28;19924;-68
2023/12/16 02:52:19;;;;;;;;;;;8.50;99.90;;;;;;4978568;28;19921;-68
2023/12/16 02:54:45;;;;;;;;;;;8.50;99.90;;;;;;4980687;28;19957;-68
2023/12/16 02:57:10;;;;;;;;;;;8.50;99.90;;;;;;4978782;28;19925;-68
2023/12/16 02:59:36;;;;;;;;;;;8.50;99.90;;;;;;4980221;28;19928;-68
2023/12/16 03:02:01;;;;;;;;;;;8.50;99.90;;;;;;4979182;28;20433;-68
2023/12/16 03:04:29;;;;;;;;;;;8.50;99.90;;;;;;4981410;28;19992;-69
2023/12/16 03:06:55;;;;;;;;;;;8.60;99.90;;;;;;4994838;28;19964;-68
2023/12/16 03:09:22;;;;;;;;;;;8.60;99.90;;;;;;4983075;28;19921;-68
2023/12/16 03:11:49;;;;;;;;;;;8.50;99.90;;;;;;4979020;28;22075;-68
2023/12/16 03:14:16;;;;;;;;;;;8.60;99.90;;;;;;4978928;28;19928;-68
2023/12/16 03:16:41;;;;;;;;;;;8.50;99.90;;;;;;4978609;28;19969;-68
2023/12/16 03:19:07;;;;;;;;;;;8.50;99.90;;;;;;4980323;28;20399;-68
2023/12/16 03:21:32;;;;;;;;;;;8.60;99.90;;;;;;4979628;28;20376;-68
2023/12/16 03:23:58;;;;;;;;;;;8.60;99.90;;;;;;4980327;28;19931;-68
2023/12/16 03:26:23;;;;;;;;;;;8.50;99.90;;;;;;4977750;28;19921;-68
2023/12/16 03:28:49;;;;;;;;;;;8.50;99.90;;;;;;4979690;28;19922;-68
2023/12/16 03:31:14;;;;;;;;;;;8.50;99.90;;;;;;4978844;28;20624;-68
2023/12/16 03:33:42;;;;;;;;;;;8.50;99.90;;;;;;4979195;28;19953;-68
2023/12/16 03:36:10;;;;;;;;;;;8.50;99.90;;;;;;4980657;28;19925;-68
2023/12/16 03:38:36;;;;;;;;;;;8.50;99.90;;;;;;4982841;28;19921;-68
2023/12/16 03:41:01;;;;;;;;;;;8.60;99.90;;;;;;4977510;28;19952;-68
2023/12/16 03:43:27;;;;;;;;;;;8.50;99.90;;;;;;4980596;28;20348;-68
2023/12/16 03:45:52;;;;;;;;;;;8.60;99.90;;;;;;4980512;28;20348;-68
2023/12/16 03:48:18;;;;;;;;;;;8.60;99.90;;;;;;4980037;28;22100;-68
2023/12/16 03:50:43;;;;;;;;;;;8.60;99.90;;;;;;4978877;28;19921;-68
2023/12/16 03:53:11;;;;;;;;;;;8.60;99.90;;;;;;4980176;28;19960;-68
2023/12/16 03:55:36;;;;;;;;;;;8.50;99.90;;;;;;4978128;28;19918;-68
2023/12/16 03:58:02;;;;;;;;;;;8.60;99.90;;;;;;4977564;28;19922;-68
2023/12/16 04:00:28;;;;;;;;;;;8.60;99.90;;;;;;4980650;28;19917;-68
2023/12/16 04:02:53;;;;;;;;;;;8.60;99.90;;;;;;4978574;28;19925;-68
2023/12/16 04:05:19;;;;;;;;;;;8.60;99.90;;;;;;5012213;28;19921;-68
2023/12/16 04:07:46;;;;;;;;;;;8.60;99.90;;;;;;4978341;28;20410;-68
2023/12/16 04:10:14;;;;;;;;;;;8.60;99.90;;;;;;4980784;28;19917;-68
2023/12/16 04:12:40;;;;;;;;;;;8.60;99.90;;;;;;4979184;28;20363;-68
2023/12/16 04:15:06;;;;;;;;;;;8.60;99.90;;;;;;4980164;28;19929;-68
2023/12/16 04:17:33;;;;;;;;;;;8.60;99.90;;;;;;4978324;28;20489;-68
2023/12/16 04:19:59;;;;;;;;;;;8.70;99.90;;;;;;4980415;28;22899;-68
2023/12/16 04:22:24;;;;;;;;;;;8.70;99.90;;;;;;4978306;28;19932;-68
2023/12/16 04:24:50;;;;;;;;;;;8.70;99.90;;;;;;4981268;28;19918;-68
2023/12/16 04:27:18;;;;;;;;;;;8.70;99.90;;;;;;4980714;28;20039;-68
2023/12/16 04:29:44;;;;;;;;;;;8.70;99.90;;;;;;4979972;28;19917;-68
2023/12/16 04:32:09;;;;;;;;;;;8.60;99.90;;;;;;4977413;28;19922;-68
2023/12/16 04:34:37;;;;;;;;;;;8.70;99.90;;;;;;4982443;28;19928;-68
2023/12/16 04:37:02;;;;;;;;;;;8.70;99.90;;;;;;4977438;28;20643;-68
2023/12/16 04:39:28;;;;;;;;;;;8.70;99.90;;;;;;4979173;28;20054;-68
2023/12/16 04:41:53;;;;;;;;;;;8.70;99.90;;;;;;4978991;28;19922;-68
2023/12/16 04:44:19;;;;;;;;;;;8.70;99.90;;;;;;4978831;28;20108;-68
2023/12/16 04:46:44;;;;;;;;;;;8.70;99.90;;;;;;4977172;28;20564;-68
2023/12/16 04:49:11;;;;;;;;;;;8.70;99.90;;;;;;4981327;28;20570;-68
2023/12/16 04:51:36;;;;;;;;;;;8.60;99.90;;;;;;4978073;28;19969;-68
2023/12/16 04:54:02;;;;;;;;;;;8.70;99.90;;;;;;4979943;28;19990;-68
2023/12/16 04:56:27;;;;;;;;;;;8.70;99.90;;;;;;4977193;28;19929;-68
2023/12/16 04:58:53;;;;;;;;;;;8.70;99.90;;;;;;4977865;28;20024;-68
2023/12/16 05:01:18;;;;;;;;;;;8.60;99.90;;;;;;4978455;28;20272;-68
2023/12/16 05:03:47;;;;;;;;;;;8.70;99.90;;;;;;4981114;28;19926;-68
2023/12/16 05:06:13;;;;;;;;;;;8.70;99.90;;;;;;4978274;28;19921;-68
2023/12/16 05:08:40;;;;;;;;;;;8.70;99.90;;;;;;4977477;28;20536;-68
2023/12/16 05:11:06;;;;;;;;;;;8.70;99.90;;;;;;4978558;28;20202;-68
2023/12/16 05:13:31;;;;;;;;;;;8.70;99.90;;;;;;4982512;28;22080;-68
2023/12/16 05:15:57;;;;;;;;;;;8.70;99.90;;;;;;4977437;28;20676;-68
2023/12/16 05:18:23;;;;;;;;;;;8.70;99.90;;;;;;4979113;28;19921;-68
2023/12/16 05:20:51;;;;;;;;;;;8.70;99.90;;;;;;4976713;28;20503;-68
2023/12/16 05:23:19;;;;;;;;;;;8.70;99.90;;;;;;4979123;28;19925;-68
2023/12/16 05:25:45;;;;;;;;;;;8.70;99.90;;;;;;4978031;28;19932;-68
2023/12/16 05:28:10;;;;;;;;;;;8.80;99.90;;;;;;4978536;28;20365;-68
2023/12/16 05:30:38;;;;;;;;;;;8.80;99.90;;;;;;4976696;28;19953;-68
2023/12/16 05:33:03;;;;;;;;;;;8.80;99.90;;;;;;4979099;28;19922;-68
2023/12/16 05:35:29;;;;;;;;;;;8.90;99.90;;;;;;4979543;28;20011;-68
2023/12/16 05:37:54;;;;;;;;;;;9.00;99.90;;;;;;4977169;28;19917;-68
2023/12/16 05:40:22;;;;;;;;;;;9.00;99.90;;;;;;4978879;28;20039;-68
2023/12/16 05:42:50;;;;;;;;;;;9.00;99.90;;;;;;5010480;28;19925;-68
2023/12/16 05:45:16;;;;;;;;;;;9.00;99.90;;;;;;4978435;28;22458;-68
2023/12/16 05:47:43;;;;;;;;;;;9.00;99.90;;;;;;4976592;28;19929;-68
2023/12/16 05:50:13;;;;;;;;;;;9.00;99.90;;;;;;4980922;28;19995;-68
2023/12/16 05:52:39;;;;;;;;;;;9.00;99.90;;;;;;4976610;28;20012;-68
2023/12/16 05:55:05;;;;;;;;;;;8.90;99.90;;;;;;4981685;28;20337;-68
2023/12/16 05:57:30;;;;;;;;;;;8.90;99.90;;;;;;4976546;28;19953;-68
2023/12/16 05:59:56;;;;;;;;;;;8.90;99.90;;;;;;4978738;28;20011;-68
2023/12/16 06:02:21;;;;;;;;;;;8.90;99.90;;;;;;4977448;28;19957;-68
2023/12/16 06:04:47;;;;;;;;;;;8.90;99.90;;;;;;4979905;28;20614;-68
2023/12/16 06:07:13;;;;;;;;;;;9.00;99.90;;;;;;4975580;28;19976;-68
2023/12/16 06:09:38;;;;;;;;;;;8.90;99.90;;;;;;4979896;28;19921;-68
2023/12/16 06:12:04;;;;;;;;;;;8.90;99.90;;;;;;4978237;28;19921;-68
2023/12/16 06:14:29;;;;;;;;;;;8.90;99.90;;;;;;4978709;28;20675;-68
2023/12/16 06:16:55;;;;;;;;;;;8.90;99.90;;;;;;4976916;28;20427;-68
2023/12/16 06:19:23;;;;;;;;;;;8.90;99.90;;;;;;4980473;28;19921;-68
2023/12/16 06:21:48;;;;;;;;;;;8.90;99.90;;;;;;4980725;28;20443;-68
2023/12/16 06:24:14;;;;;;;;;;;9.00;99.90;;;;;;4982054;28;19921;-68
2023/12/16 06:26:39;;;;;;;;;;;8.90;99.90;;;;;;5012790;28;20257;-67
2023/12/16 06:29:05;;;;;;;;;;;8.90;99.90;;;;;;4982089;28;21707;-68
2023/12/16 06:31:33;;;;;;;;;;;8.90;99.90;;;;;;4981155;28;20368;-68
2023/12/16 06:33:59;;;;;;;;;;;8.90;99.90;;;;;;4983742;28;19917;-68
2023/12/16 06:36:24;;;;;;;;;;;8.80;99.90;;;;;;4981283;28;20100;-68
2023/12/16 06:38:55;;;;;;;;;;;8.90;99.90;;;;;;4981803;28;20410;-68
2023/12/16 06:41:20;;;;;;;;;;;8.80;99.90;;;;;;4982367;28;19956;-68
2023/12/16 06:43:45;;;;;;;;;;;8.80;99.90;;;;;;4982838;28;22399;-68
2023/12/16 06:46:11;;;;;;;;;;;8.80;99.90;;;;;;4980550;28;19922;-68
2023/12/16 06:48:36;;;;;;;;;;;8.90;99.90;;;;;;5012053;22;20451;-68
2023/12/16 06:51:04;;;;;;;;;;;8.90;99.90;;;;;;5013641;28;19931;-68
2023/12/16 06:53:30;;;;;;;;;;;8.80;99.90;;;;;;5019907;28;20008;-68
2023/12/16 06:55:58;;;;;;;;;;;8.90;99.90;;;;;;5001668;28;19917;-68
2023/12/16 06:58:26;;;;;;;;;;;8.90;99.90;;;;;;4990481;28;19921;-68
2023/12/16 07:00:54;;;;;;;;;;;8.80;99.90;;;;;;4992924;28;19913;-68
2023/12/16 07:03:22;;;;;;;;;;;8.90;99.90;;;;;;4992241;28;20017;-68
2023/12/16 07:05:48;;;;;;;;;;;8.80;99.90;;;;;;4992956;28;20054;-68
2023/12/16 07:08:14;;;;;;;;;;;8.80;99.90;;;;;;4990736;28;20059;-68
2023/12/16 07:10:40;;;;;;;;;;;8.80;99.90;;;;;;4993249;28;19921;-68
2023/12/16 07:13:08;;;;;;;;;;;8.80;99.90;;;;;;4990690;28;20108;-68
2023/12/16 07:15:33;;;;;;;;;;;8.80;99.90;;;;;;5006184;28;19944;-68
2023/12/16 07:17:59;;;;;;;;;;;8.80;99.90;;;;;;4991493;28;19967;-68
2023/12/16 07:20:24;;;;;;;;;;;8.80;99.90;;;;;;4990603;28;19931;-68
2023/12/16 07:22:50;;;;;;;;;;;8.80;99.90;;;;;;4993375;28;20455;-68
2023/12/16 07:25:15;;;;;;;;;;;8.80;99.90;;;;;;4991175;28;20506;-68
2023/12/16 07:27:41;;;;;;;;;;;8.80;99.90;;;;;;4992632;28;19928;-68
2023/12/16 07:30:09;;;;;;;;;;;8.80;99.90;;;;;;4990037;28;19921;-68
2023/12/16 07:32:35;;;;;;;;;;;8.80;99.90;;;;;;4997675;28;19921;-68
2023/12/16 07:35:02;;;;;;;;;;;8.70;99.90;;;;;;4991229;28;19924;-68
2023/12/16 07:37:28;;;;;;;;;;;8.70;99.90;;;;;;4992828;28;20134;-68
2023/12/16 07:39:53;;;;;;;;;;;8.70;99.90;;;;;;4990459;28;19971;-68
2023/12/16 07:42:19;;;;;;;;;;;8.70;99.90;;;;;;4991807;28;19925;-68
2023/12/16 07:44:44;;;;;;;;;;;8.70;99.90;;;;;;4990000;28;19961;-68
2023/12/16 07:47:10;;;;;;;;;;;8.60;99.90;;;;;;4991653;28;20123;-68
2023/12/16 07:49:35;;;;;;;;;;;8.70;99.90;;;;;;4988980;28;19932;-68
2023/12/16 07:52:01;;;;;;;;;;;8.70;99.90;;;;;;4991779;28;20008;-68
2023/12/16 07:54:30;;;;;;;;;;;8.60;99.90;;;;;;4989045;28;20016;-68
2023/12/16 07:56:57;;;;;;;;;;;8.60;99.90;;;;;;4990695;28;19936;-68
2023/12/16 07:59:23;;;;;;;;;;;8.60;99.90;;;;;;4988302;28;20337;-66
2023/12/16 08:01:52;;;;;;;;;;;8.60;99.90;;;;;;4992667;28;19921;-68
2023/12/16 08:04:20;;;;;;;;;;;8.60;99.90;;;;;;4994901;28;20792;-67
2023/12/16 08:06:48;;;;;;;;;;;8.60;99.90;;;;;;4994829;28;19921;-68
2023/12/16 08:09:13;;;;;;;;;;;8.60;99.90;;;;;;4990428;28;20327;-68
2023/12/16 08:11:39;;;;;;;;;;;8.60;99.90;;;;;;4992087;28;19964;-68
2023/12/16 08:14:06;;;;;;;;;;;8.50;99.90;;;;;;4989478;28;20037;-68
2023/12/16 08:16:32;;;;;;;;;;;8.50;99.90;;;;;;4993776;28;19921;-67
2023/12/16 08:18:57;;;;;;;;;;;8.60;99.90;;;;;;4990411;28;20379;-68
2023/12/16 08:21:25;;;;;;;;;;;8.50;99.90;;;;;;4991139;28;19921;-67
2023/12/16 08:23:50;;;;;;;;;;;8.50;99.90;;;;;;4992191;28;20068;-68
2023/12/16 08:26:18;;;;;;;;;;;8.50;99.90;;;;;;4994028;28;21472;-68
2023/12/16 08:28:46;;;;;;;;;;;8.50;99.90;;;;;;4992352;28;19948;-68
2023/12/16 08:31:11;;;;;;;;;;;8.60;99.90;;;;;;4988701;28;19921;-68
2023/12/16 08:33:39;;;;;;;;;;;8.50;99.90;;;;;;4992592;28;20241;-68
2023/12/16 08:36:07;;;;;;;;;;;8.50;99.90;;;;;;4991557;28;19921;-68
2023/12/16 08:38:35;;;;;;;;;;;8.60;99.90;;;;;;4992613;28;19922;-68
2023/12/16 08:41:07;;;;;;;;;;;8.70;99.90;;;;;;4991335;28;20377;-68
2023/12/16 08:43:34;;;;;;;;;;;8.70;99.90;;;;;;4995376;28;19929;-68
2023/12/16 08:46:00;;;;;;;;;;;8.80;99.90;;;;;;4990841;28;19921;-68
2023/12/16 08:48:29;;;;;;;;;;;8.70;99.90;;;;;;4990815;28;20290;-68
2023/12/16 08:50:57;;;;;;;;;;;8.70;99.90;;;;;;4995279;28;19917;-68
2023/12/16 08:53:25;;;;;;;;;;;8.70;99.90;;;;;;4989954;28;19921;-68
2023/12/16 08:55:51;;;;;;;;;;;8.80;99.90;;;;;;4991073;28;19928;-68
2023/12/16 08:58:19;;;;;;;;;;;8.80;99.90;;;;;;4991541;28;19921;-68
2023/12/16 09:00:45;;;;;;;;;;;8.90;99.90;;;;;;4992299;28;20007;-68
2023/12/16 09:03:13;;;;;;;;;;;9.00;99.90;;;;;;4989154;28;19931;-68
2023/12/16 09:05:41;;;;;;;;;;;9.10;99.90;;;;;;4992016;28;20314;-68
2023/12/16 09:08:07;;;;;;;;;;;9.10;99.90;;;;;;4989973;28;20535;-68
2023/12/16 09:10:32;;;;;;;;;;;9.20;99.90;;;;;;4990241;28;19917;-68
2023/12/16 09:12:58;;;;;;;;;;;9.20;99.90;;;;;;4990505;28;19921;-68
2023/12/16 09:15:24;;;;;;;;;;;9.30;99.90;;;;;;4988934;28;19921;-68
2023/12/16 09:17:50;;;;;;;;;;;9.40;99.90;;;;;;4991330;28;20299;-68
2023/12/16 09:20:15;;;;;;;;;;;9.40;99.90;;;;;;4989800;28;19921;-69
2023/12/16 09:22:41;;;;;;;;;;;9.50;99.90;;;;;;4990855;28;20060;-68
2023/12/16 09:25:08;;;;;;;;;;;9.50;99.90;;;;;;4987627;28;19952;-68
2023/12/16 09:27:34;;;;;;;;;;;9.50;99.90;;;;;;4988781;28;20390;-68
2023/12/16 09:29:59;;;;;;;;;;;9.60;99.90;;;;;;4987277;28;19952;-68
2023/12/16 09:32:25;;;;;;;;;;;9.60;99.90;;;;;;4991586;28;20011;-68
2023/12/16 09:34:50;;;;;;;;;;;9.50;99.90;;;;;;4996056;28;20375;-68
2023/12/16 09:37:18;;;;;;;;;;;9.60;99.90;;;;;;5015912;28;19924;-69
2023/12/16 09:39:43;;;;;;;;;;;9.60;99.90;;;;;;5018359;28;19923;-68
2023/12/16 09:42:10;;;;;;;;;;;9.60;99.90;;;;;;5005699;28;19921;-68
2023/12/16 09:44:36;;;;;;;;;;;9.60;99.90;;;;;;4990087;28;19948;-68
2023/12/16 09:47:05;;;;;;;;;;;9.60;99.90;;;;;;4990491;28;19924;-68
2023/12/16 09:49:31;;;;;;;;;;;9.60;99.90;;;;;;4989748;28;20161;-68
2023/12/16 09:51:59;;;;;;;;;;;9.60;99.90;;;;;;4993785;28;19956;-68
2023/12/16 09:54:24;;;;;;;;;;;9.60;99.90;;;;;;4989669;28;20403;-68
2023/12/16 09:56:50;;;;;;;;;;;9.60;99.90;;;;;;4988556;28;19921;-68
2023/12/16 09:59:19;;;;;;;;;;;9.60;99.90;;;;;;4992517;28;20175;-68
2023/12/16 10:01:57;;;;;;;;;;;9.60;99.90;;;;;;4992569;28;20371;-68
2023/12/16 10:04:27;;;;;;;;;;;9.60;99.90;;;;;;4990710;28;20160;-68
2023/12/16 10:06:53;;;;;;;;;;;9.60;99.90;;;;;;4993463;28;21287;-68
2023/12/16 10:09:18;;;;;;;;;;;9.60;99.90;;;;;;4990314;28;20307;-68
2023/12/16 10:11:49;;;;;;;;;;;9.60;99.90;;;;;;4992345;28;20007;-68
2023/12/16 10:14:15;;;;;;;;;;;9.70;99.90;;;;;;4991319;28;19927;-68
2023/12/16 10:16:46;;;;;;;;;;;9.70;99.90;;;;;;4990219;28;19917;-68
2023/12/16 10:19:12;;;;;;;;;;;9.70;99.90;;;;;;4993407;28;20339;-68
2023/12/16 10:21:39;;;;;;;;;;;9.70;99.90;;;;;;4993280;28;20558;-66
2023/12/16 10:24:05;;;;;;;;;;;9.70;99.90;;;;;;4989741;28;19935;-66
2023/12/16 10:26:31;;;;;;;;;;;9.80;99.90;;;;;;4990732;28;20132;-66
2023/12/16 10:29:04;;;;;;;;;;;9.80;99.90;;;;;;4989002;28;20188;-66
2023/12/16 10:31:32;;;;;;;;;;;9.80;99.90;;;;;;4993573;28;19932;-66
2023/12/16 10:34:03;;;;;;;;;;;9.80;99.90;;;;;;4990924;28;20039;-66
2023/12/16 10:36:30;;;;;;;;;;;9.80;99.90;;;;;;4991541;28;19921;-66
2023/12/16 10:38:55;;;;;;;;;;;9.80;99.90;;;;;;4995267;28;19920;-66
2023/12/16 10:41:22;;;;;;;;;;;9.90;99.90;;;;;;4994143;28;19927;-66
2023/12/16 10:43:47;;;;;;;;;;;9.90;99.90;;;;;;4996616;28;19984;-66
2023/12/16 10:46:16;;;;;;;;;;;9.90;99.90;;;;;;4992445;28;20331;-66
2023/12/16 10:48:42;;;;;;;;;;;9.90;99.90;;;;;;4995456;28;20134;-66
2023/12/16 10:51:09;;;;;;;;;;;9.90;99.90;;;;;;4991136;28;19921;-68
2023/12/16 10:53:49;;;;;;;;;;;10.00;99.90;;;;;;4995173;28;19932;-68
2023/12/16 10:56:16;;;;;;;;;;;10.00;99.90;;;;;;4994660;28;19921;-68
2023/12/16 10:59:02;;;;;;;;;;;10.00;99.90;;;;;;4995367;28;20523;-68
2023/12/16 11:01:31;;;;;;;;;;;10.00;99.90;;;;;;4994020;28;19921;-68
2023/12/16 11:04:08;;;;;;;;;;;10.00;99.90;;;;;;4994532;28;19925;-69
2023/12/16 11:06:38;;;;;;;;;;;10.00;99.90;;;;;;5000596;28;20007;-68
2023/12/16 11:09:06;;;;;;;;;;;10.10;99.90;;;;;;4992077;28;20080;-68
2023/12/16 11:11:31;;;;;;;;;;;10.00;99.90;;;;;;4997792;28;19960;-66
2023/12/16 11:13:58;;;;;;;;;;;10.10;99.90;;;;;;4996393;28;19913;-66
2023/12/16 11:16:29;;;;;;;;;;;10.10;99.90;;;;;;4999277;28;19921;-66
2023/12/16 11:18:55;;;;;;;;;;;10.10;99.90;;;;;;4998614;28;19921;-66
2023/12/16 11:21:23;;;;;;;;;;;10.10;99.90;;;;;;5000241;28;20974;-66
2023/12/16 11:23:49;;;;;;;;;;;10.10;99.90;;;;;;4997210;28;19932;-68
2023/12/16 11:26:17;;;;;;;;;;;10.10;99.90;;;;;;4997679;28;19921;-66
2023/12/16 11:28:43;;;;;;;;;;;10.10;99.90;;;;;;4996425;28;19925;-65
2023/12/16 11:31:10;;;;;;;;;;;10.10;99.90;;;;;;5000112;28;19921;-68
2023/12/16 11:33:44;;;;;;;;;;;10.20;99.90;;;;;;4998412;28;19921;-69
2023/12/16 11:36:10;;;;;;;;;;;10.10;99.90;;;;;;5000819;28;19921;-68
2023/12/16 11:38:37;;;;;;;;;;;10.10;99.90;;;;;;4993641;28;19921;-68
2023/12/16 11:41:03;;;;;;;;;;;10.10;99.90;;;;;;5000138;28;20050;-68
2023/12/16 11:43:48;;;;;;;;;;;10.10;99.90;;;;;;4995173;28;19925;-68
2023/12/16 11:46:35;;;;;;;;;;;10.10;99.90;;;;;;5000010;28;20891;-68
2023/12/16 11:49:02;;;;;;;;;;;10.10;99.90;;;;;;5000092;28;19921;-68
2023/12/16 11:51:28;;;;;;;;;;;10.10;99.90;;;;;;4997154;28;19928;-68
2023/12/16 11:53:54;;;;;;;;;;;10.10;99.90;;;;;;4996314;28;19966;-68
2023/12/16 11:56:19;;;;;;;;;;;10.20;99.90;;;;;;5011338;28;20496;-66
2023/12/16 11:58:45;;;;;;;;;;;10.20;99.90;;;;;;4996202;28;19917;-65
2023/12/16 12:01:13;;;;;;;;;;;10.20;99.90;;;;;;4997086;28;19925;-66
2023/12/16 12:03:38;;;;;;;;;;;10.20;99.90;;;;;;4994905;28;19975;-65
2023/12/16 12:06:04;;;;;;;;;;;10.20;99.90;;;;;;4997287;28;20136;-65
2023/12/16 12:08:29;;;;;;;;;;;10.20;99.90;;;;;;4995848;28;20548;-65
2023/12/16 12:10:55;;;;;;;;;;;10.20;99.90;;;;;;4998692;28;19964;-66
2023/12/16 12:13:20;;;;;;;;;;;10.20;99.90;;;;;;5001853;28;19929;-66
2023/12/16 12:15:48;;;;;;;;;;;10.20;99.90;;;;;;4997770;28;20299;-66
2023/12/16 12:18:14;;;;;;;;;;;10.20;99.90;;;;;;4997744;28;19921;-65
2023/12/16 12:20:39;;;;;;;;;;;10.20;99.90;;;;;;4996763;28;19967;-66
2023/12/16 12:23:05;;;;;;;;;;;10.30;99.90;;;;;;4996710;28;20011;-66
2023/12/16 12:25:30;;;;;;;;;;;10.30;99.90;;;;;;4995555;28;19921;-66
2023/12/16 12:27:56;;;;;;;;;;;10.30;99.90;;;;;;4996759;28;20446;-66
2023/12/16 12:30:22;;;;;;;;;;;10.30;99.90;;;;;;4996179;28;19921;-68
2023/12/16 12:32:47;;;;;;;;;;;10.20;99.90;;;;;;4996344;28;19964;-68
2023/12/16 12:35:15;;;;;;;;;;;10.20;99.90;;;;;;4996615;28;19957;-68
2023/12/16 12:37:44;;;;;;;;;;;10.30;99.90;;;;;;4997552;28;20340;-68
2023/12/16 12:40:13;;;;;;;;;;;10.30;99.90;;;;;;4998102;28;19924;-68
2023/12/16 12:42:54;;;;;;;;;;;10.30;99.90;;;;;;4996890;28;19925;-66
2023/12/16 12:45:25;;;;;;;;;;;10.30;99.90;;;;;;4996545;28;19921;-66
2023/12/16 12:47:53;;;;;;;;;;;10.30;99.90;;;;;;4999806;22;21090;-66
2023/12/16 12:50:20;;;;;;;;;;;10.30;99.90;;;;;;4991404;28;19957;-66
2023/12/16 12:52:45;;;;;;;;;;;10.30;99.90;;;;;;4992064;28;19952;-66
2023/12/16 12:55:11;;;;;;;;;;;10.30;99.90;;;;;;4990493;28;20020;-66
2023/12/16 12:57:36;;;;;;;;;;;10.30;99.90;;;;;;4991952;28;19928;-66
2023/12/16 13:00:03;;;;;;;;;;;10.30;99.90;;;;;;4989440;28;19928;-66
2023/12/16 13:02:29;;;;;;;;;;;10.30;99.90;;;;;;4992301;28;19979;-66
2023/12/16 13:04:55;;;;;;;;;;;10.30;99.90;;;;;;4991360;28;19947;-65
2023/12/16 13:07:20;;;;;;;;;;;10.30;99.90;;;;;;4992521;28;19918;-66
2023/12/16 13:09:48;;;;;;;;;;;10.30;99.90;;;;;;4989934;28;20014;-66
2023/12/16 13:12:13;;;;;;;;;;;10.30;99.90;;;;;;4992973;28;19921;-66
2023/12/16 13:14:47;;;;;;;;;;;10.30;99.90;;;;;;4989621;28;19921;-65
2023/12/16 13:17:15;;;;;;;;;;;10.30;99.90;;;;;;4991677;28;19948;-66
2023/12/16 13:19:42;;;;;;;;;;;10.30;99.90;;;;;;4991153;28;20441;-66
2023/12/16 13:22:08;;;;;;;;;;;10.30;99.90;;;;;;4991345;28;20069;-66
2023/12/16 13:24:33;;;;;;;;;;;10.30;99.90;;;;;;4990723;28;20395;-66
2023/12/16 13:26:59;;;;;;;;;;;10.40;99.90;;;;;;4990004;28;19921;-65
2023/12/16 13:29:24;;;;;;;;;;;10.30;99.90;;;;;;4990341;28;19928;-66
2023/12/16 13:31:50;;;;;;;;;;;10.30;99.90;;;;;;4990483;28;19929;-66
2023/12/16 13:34:17;;;;;;;;;;;10.30;99.90;;;;;;4990250;28;19928;-66
2023/12/16 13:36:43;;;;;;;;;;;10.30;99.90;;;;;;4992642;28;19939;-65
2023/12/16 13:39:08;;;;;;;;;;;10.30;99.90;;;;;;4991831;28;19922;-66
2023/12/16 13:41:34;;;;;;;;;;;10.30;99.90;;;;;;4990852;28;20036;-66
2023/12/16 13:44:02;;;;;;;;;;;10.30;99.90;;;;;;4991611;28;20434;-66
2023/12/16 13:46:30;;;;;;;;;;;10.30;99.90;;;;;;4992648;28;19917;-66
2023/12/16 13:48:58;;;;;;;;;;;10.30;99.90;;;;;;4991915;28;20018;-66
2023/12/16 13:51:25;;;;;;;;;;;10.30;99.90;;;;;;4991060;28;20391;-66
2023/12/16 13:53:51;;;;;;;;;;;10.20;99.90;;;;;;4991245;28;19921;-65
2023/12/16 13:56:16;;;;;;;;;;;10.20;99.90;;;;;;4991107;28;20316;-65
2023/12/16 13:58:44;;;;;;;;;;;10.20;99.90;;;;;;4988206;28;19925;-66
2023/12/16 14:01:10;;;;;;;;;;;10.20;99.90;;;;;;4993558;28;20720;-66
2023/12/16 14:03:37;;;;;;;;;;;10.20;99.90;;;;;;4989865;28;19925;-65
2023/12/16 14:06:04;;;;;;;;;;;10.20;99.90;;;;;;4991168;28;20030;-66
2023/12/16 14:08:31;;;;;;;;;;;10.20;99.90;;;;;;4990106;28;19921;-65
2023/12/16 14:10:56;;;;;;;;;;;10.20;99.90;;;;;;4992145;28;20298;-68
2023/12/16 14:13:23;;;;;;;;;;;10.20;99.90;;;;;;4991911;28;20370;-68
2023/12/16 14:15:48;;;;;;;;;;;10.20;99.90;;;;;;4990812;28;20014;-68
2023/12/16 14:18:14;;;;;;;;;;;10.20;99.90;;;;;;4989498;28;20403;-68
2023/12/16 14:20:39;;;;;;;;;;;10.20;99.90;;;;;;4991652;28;19921;-68
2023/12/16 14:23:07;;;;;;;;;;;10.20;99.90;;;;;;4989408;28;20020;-68